Time;durP1;ratioP1;P1;durP2;ratioP2;P2;SDS_P1;SDS_P2;PMS_P1;PMS_P2;Temp;Humidity;BMP_temperature;BMP_pressure;BME280_temperature;BME280_humidity;BME280_pressure;Samples;Min_cycle;Max_cycle;Signal;HPM_P1;HPM_P2
2022/07/30 00:02:06;;;;;;;5.97;3.53;;;17.30;99.90;;;;;;5044397;28;20489;-77
2022/07/30 00:04:32;;;;;;;7.28;3.00;;;17.30;99.90;;;;;;5041293;28;20048;-77
2022/07/30 00:06:58;;;;;;;7.20;3.28;;;17.60;99.90;;;;;;5038981;28;20099;-76
2022/07/30 00:09:24;;;;;;;5.05;2.92;;;17.30;99.90;;;;;;5038057;28;20054;-77
2022/07/30 00:11:50;;;;;;;4.97;2.95;;;17.20;99.90;;;;;;5047358;28;20038;-77
2022/07/30 00:14:15;;;;;;;6.80;3.42;;;17.20;99.90;;;;;;5039153;28;20050;-77
2022/07/30 00:16:41;;;;;;;7.15;3.35;;;17.00;99.90;;;;;;5040593;28;20289;-77
2022/07/30 00:19:07;;;;;;;5.22;3.15;;;17.00;99.90;;;;;;5042603;28;20029;-77
2022/07/30 00:21:32;;;;;;;8.52;3.40;;;16.90;99.90;;;;;;5040733;28;20076;-76
2022/07/30 00:23:58;;;;;;;7.28;3.53;;;17.60;99.90;;;;;;5038176;28;20496;-77
2022/07/30 00:26:23;;;;;;;4.72;2.95;;;17.00;99.90;;;;;;5039073;28;20041;-76
2022/07/30 00:28:49;;;;;;;6.22;2.60;;;16.90;99.90;;;;;;5038732;28;20045;-76
2022/07/30 00:31:14;;;;;;;6.53;2.92;;;16.90;99.90;;;;;;5038041;28;20500;-76
2022/07/30 00:33:40;;;;;;;5.22;2.70;;;16.90;99.90;;;;;;5041073;28;20128;-77
2022/07/30 00:36:06;;;;;;;5.38;3.00;;;17.00;99.90;;;;;;5041622;28;20029;-76
2022/07/30 00:38:31;;;;;;;6.13;3.20;;;16.90;99.90;;;;;;5041015;28;20052;-76
2022/07/30 00:40:57;;;;;;;5.72;2.90;;;16.90;99.90;;;;;;5043233;28;20075;-77
2022/07/30 00:43:23;;;;;;;5.53;2.95;;;17.20;99.90;;;;;;5042145;28;20118;-81
2022/07/30 00:45:48;;;;;;;4.63;2.22;;;16.80;99.90;;;;;;5046015;28;20045;-79
2022/07/30 00:48:14;;;;;;;3.72;2.80;;;16.80;99.90;;;;;;5045765;28;20045;-78
2022/07/30 00:50:40;;;;;;;3.20;2.65;;;16.90;99.90;;;;;;5042844;28;20072;-79
2022/07/30 00:53:06;;;;;;;4.57;3.33;;;16.70;99.90;;;;;;5029838;28;20424;-77
2022/07/30 00:55:32;;;;;;;3.20;2.78;;;16.70;99.90;;;;;;5044745;28;20037;-75
2022/07/30 00:57:58;;;;;;;5.82;3.05;;;16.60;99.90;;;;;;5041586;28;20033;-77
2022/07/30 01:00:25;;;;;;;6.35;3.03;;;17.00;99.90;;;;;;5041747;28;20524;-76
2022/07/30 01:02:51;;;;;;;6.45;3.47;;;16.50;99.90;;;;;;5050403;28;20053;-76
2022/07/30 01:05:17;;;;;;;6.43;3.17;;;16.50;99.90;;;;;;5041373;28;20045;-76
2022/07/30 01:07:43;;;;;;;5.93;3.00;;;17.40;99.90;;;;;;5044382;28;20037;-76
2022/07/30 01:10:12;;;;;;;6.63;3.28;;;16.40;99.90;;;;;;5027345;28;20245;-79
2022/07/30 01:12:38;;;;;;;9.70;3.05;;;16.50;99.90;;;;;;5044720;28;20046;-80
2022/07/30 01:15:06;;;;;;;4.55;2.78;;;16.30;99.90;;;;;;5027917;28;20106;-78
2022/07/30 01:17:34;;;;;;;3.78;2.63;;;16.30;99.90;;;;;;5045351;28;20057;-79
2022/07/30 01:20:05;;;;;;;5.50;3.22;;;16.30;99.90;;;;;;5026509;28;20039;-80
2022/07/30 01:22:58;;;;;;;2.50;2.22;;;16.30;99.90;;;;;;5027348;28;20471;-80
2022/07/30 01:25:57;;;;;;;3.17;2.97;;;16.20;99.90;;;;;;5044612;28;20045;-78
2022/07/30 01:28:27;;;;;;;8.63;3.67;;;16.10;99.90;;;;;;5041637;28;20132;-77
2022/07/30 01:30:55;;;;;;;3.55;3.05;;;16.00;99.90;;;;;;5050465;28;20036;-79
2022/07/30 01:33:22;;;;;;;4.65;3.05;;;16.00;99.90;;;;;;5041253;28;20049;-81
2022/07/30 01:35:50;;;;;;;4.35;2.78;;;16.00;99.90;;;;;;5044365;28;20033;-80
2022/07/30 01:38:20;;;;;;;3.90;2.63;;;15.90;99.90;;;;;;5045122;28;20045;-80
2022/07/30 01:40:48;;;;;;;5.90;2.97;;;16.30;99.90;;;;;;5043765;28;20443;-77
2022/07/30 01:43:15;;;;;;;4.00;3.08;;;15.80;99.90;;;;;;5044959;28;20094;-80
2022/07/30 01:45:41;;;;;;;6.90;3.85;;;15.80;99.90;;;;;;5026906;28;20140;-77
2022/07/30 01:48:09;;;;;;;4.35;3.67;;;15.70;99.90;;;;;;5043842;28;20045;-76
2022/07/30 01:50:36;;;;;;;6.53;3.58;;;15.60;99.90;;;;;;5026618;28;20055;-78
2022/07/30 01:53:02;;;;;;;6.57;3.67;;;15.60;99.90;;;;;;5048541;28;20037;-76
2022/07/30 01:55:38;;;;;;;6.03;4.00;;;15.70;99.90;;;;;;5039802;28;20099;-77
2022/07/30 01:58:06;;;;;;;3.50;3.20;;;15.70;99.90;;;;;;5040979;28;20436;-76
2022/07/30 02:00:35;;;;;;;5.72;4.30;;;15.70;99.90;;;;;;5040045;28;20127;-78
2022/07/30 02:03:01;;;;;;;8.70;4.90;;;15.70;99.90;;;;;;5044598;28;20062;-77
2022/07/30 02:05:30;;;;;;;7.68;4.05;;;15.70;99.90;;;;;;5044486;28;20443;-77
2022/07/30 02:08:17;;;;;;;6.95;4.10;;;15.70;99.90;;;;;;5043700;28;20064;-77
2022/07/30 02:11:09;;;;;;;4.25;3.85;;;15.80;99.90;;;;;;5018297;28;20556;-78
2022/07/30 02:13:46;;;;;;;7.15;4.70;;;15.70;99.90;;;;;;5043895;28;20052;-76
2022/07/30 02:16:20;;;;;;;5.20;4.68;;;15.70;99.90;;;;;;5045732;28;20136;-77
2022/07/30 02:19:01;;;;;;;8.43;4.50;;;15.60;99.90;;;;;;5026343;28;20089;-80
2022/07/30 02:21:31;;;;;;;4.55;4.15;;;15.60;99.90;;;;;;5043655;28;20392;-77
2022/07/30 02:23:57;;;;;;;5.10;4.07;;;15.60;99.90;;;;;;5044260;28;20120;-78
2022/07/30 02:26:25;;;;;;;7.55;5.20;;;15.60;99.90;;;;;;5044220;28;20116;-79
2022/07/30 02:28:55;;;;;;;7.25;4.72;;;15.90;99.90;;;;;;5040783;28;20053;-76
2022/07/30 02:31:25;;;;;;;8.93;5.85;;;15.60;99.90;;;;;;5047043;28;20040;-77
2022/07/30 02:33:55;;;;;;;11.70;6.47;;;15.80;99.90;;;;;;5041277;28;20057;-76
2022/07/30 02:36:22;;;;;;;8.95;6.63;;;15.60;99.90;;;;;;5039730;28;20084;-77
2022/07/30 02:38:50;;;;;;;7.28;6.57;;;15.50;99.90;;;;;;5042310;28;20051;-75
2022/07/30 02:41:17;;;;;;;7.38;6.65;;;15.40;99.90;;;;;;5046062;28;20041;-77
2022/07/30 02:43:44;;;;;;;8.95;6.80;;;15.40;99.90;;;;;;5022903;28;20077;-76
2022/07/30 02:46:12;;;;;;;7.25;6.55;;;15.30;99.90;;;;;;5046876;28;20034;-76
2022/07/30 02:48:39;;;;;;;8.25;7.30;;;15.40;99.90;;;;;;5040661;28;20121;-78
2022/07/30 02:51:06;;;;;;;8.63;7.00;;;15.40;99.90;;;;;;5046284;28;20080;-76
2022/07/30 02:53:34;;;;;;;10.98;6.68;;;15.40;99.90;;;;;;5040106;28;20052;-78
2022/07/30 02:56:01;;;;;;;9.43;7.22;;;15.30;99.90;;;;;;5040044;28;20053;-76
2022/07/30 02:58:28;;;;;;;8.82;7.93;;;15.30;99.90;;;;;;5039537;28;20246;-77
2022/07/30 03:00:55;;;;;;;8.57;6.57;;;15.60;99.90;;;;;;5024138;28;20456;-78
2022/07/30 03:03:27;;;;;;;9.98;6.75;;;15.20;99.90;;;;;;5043174;28;20389;-79
2022/07/30 03:05:54;;;;;;;8.55;6.38;;;15.10;99.90;;;;;;5039908;28;20106;-77
2022/07/30 03:08:21;;;;;;;6.75;5.85;;;15.10;99.90;;;;;;5039792;28;20405;-78
2022/07/30 03:10:48;;;;;;;12.30;7.00;;;15.10;99.90;;;;;;5040946;28;20132;-77
2022/07/30 03:13:15;;;;;;;9.85;7.15;;;16.00;99.90;;;;;;5044072;28;20041;-79
2022/07/30 03:15:45;;;;;;;8.27;6.55;;;15.10;99.90;;;;;;5042394;28;20048;-77
2022/07/30 03:18:13;;;;;;;10.32;7.13;;;15.10;99.90;;;;;;5021218;28;20036;-78
2022/07/30 03:20:39;;;;;;;13.15;9.40;;;14.90;99.90;;;;;;5029561;28;20139;-77
2022/07/30 03:23:06;;;;;;;9.75;8.82;;;14.90;99.90;;;;;;5043841;28;20029;-71
2022/07/30 03:25:33;;;;;;;9.48;8.40;;;14.90;99.90;;;;;;5043807;28;20041;-76
2022/07/30 03:28:02;;;;;;;12.45;8.55;;;14.90;99.90;;;;;;5042908;28;20045;-80
2022/07/30 03:30:28;;;;;;;9.80;7.72;;;15.00;99.90;;;;;;5042634;28;20381;-78
2022/07/30 03:32:55;;;;;;;8.88;7.97;;;15.60;99.90;;;;;;5042474;28;20049;-76
2022/07/30 03:35:23;;;;;;;13.90;7.53;;;15.00;99.90;;;;;;5025213;28;20041;-78
2022/07/30 03:37:50;;;;;;;8.68;7.78;;;15.00;99.90;;;;;;5025097;28;20045;-80
2022/07/30 03:40:17;;;;;;;8.00;7.22;;;15.10;99.90;;;;;;5044850;28;20092;-80
2022/07/30 03:42:44;;;;;;;9.50;8.00;;;15.00;99.90;;;;;;5047707;28;20120;-78
2022/07/30 03:45:12;;;;;;;10.43;7.63;;;15.80;99.90;;;;;;5039561;28;20049;-77
2022/07/30 03:47:40;;;;;;;11.65;7.78;;;15.10;99.90;;;;;;5021029;28;20041;-76
2022/07/30 03:50:07;;;;;;;12.57;7.88;;;15.00;99.90;;;;;;5039301;28;20042;-77
2022/07/30 03:52:39;;;;;;;9.55;7.72;;;15.00;99.90;;;;;;5029123;28;20049;-77
2022/07/30 03:55:07;;;;;;;10.90;8.90;;;15.00;99.90;;;;;;5029163;28;20477;-77
2022/07/30 03:57:32;;;;;;;10.98;8.35;;;14.90;99.90;;;;;;5046675;28;20535;-75
2022/07/30 03:59:58;;;;;;;12.50;9.85;;;14.80;99.90;;;;;;5041633;28;20088;-77
2022/07/30 04:02:24;;;;;;;12.10;9.48;;;14.80;99.90;;;;;;5036876;28;20054;-76
2022/07/30 04:04:50;;;;;;;10.82;7.75;;;15.40;99.90;;;;;;5041597;28;20056;-76
2022/07/30 04:07:16;;;;;;;12.35;8.55;;;14.70;99.90;;;;;;5003762;28;20041;-77
2022/07/30 04:09:42;;;;;;;14.80;8.90;;;14.70;99.90;;;;;;5048388;28;20400;-77
2022/07/30 04:12:07;;;;;;;9.90;8.93;;;14.70;99.90;;;;;;5043857;28;20044;-77
2022/07/30 04:14:43;;;;;;;9.50;8.35;;;14.70;99.90;;;;;;5044021;28;20053;-75
2022/07/30 04:17:15;;;;;;;12.18;9.13;;;14.90;99.90;;;;;;5040605;28;20034;-77
2022/07/30 04:19:58;;;;;;;10.95;9.40;;;14.70;99.90;;;;;;5050941;28;20033;-77
2022/07/30 04:22:35;;;;;;;15.50;8.77;;;14.70;99.90;;;;;;5025927;28;20461;-78
2022/07/30 04:25:05;;;;;;;9.50;8.20;;;14.70;99.90;;;;;;5052275;28;20052;-76
2022/07/30 04:27:32;;;;;;;10.10;8.23;;;14.60;99.90;;;;;;5050211;28;20053;-76
2022/07/30 04:29:58;;;;;;;10.93;8.48;;;14.70;99.90;;;;;;5044484;28;20124;-77
2022/07/30 04:32:24;;;;;;;13.48;11.00;;;14.70;99.90;;;;;;5049473;28;20077;-77
2022/07/30 04:34:52;;;;;;;10.40;9.40;;;14.70;99.90;;;;;;5046460;28;20077;-77
2022/07/30 04:37:20;;;;;;;11.32;10.23;;;14.70;99.90;;;;;;4993688;28;20112;-76
2022/07/30 04:39:48;;;;;;;10.68;9.77;;;15.10;99.90;;;;;;5043221;28;20087;-76
2022/07/30 04:42:15;;;;;;;8.77;7.97;;;14.60;99.90;;;;;;5027495;28;20060;-76
2022/07/30 04:44:41;;;;;;;9.70;7.70;;;14.50;99.90;;;;;;5029350;28;20116;-77
2022/07/30 04:47:08;;;;;;;8.88;7.45;;;14.60;99.90;;;;;;5025562;28;20038;-76
2022/07/30 04:49:34;;;;;;;8.40;7.32;;;14.70;99.90;;;;;;5048578;28;20068;-77
2022/07/30 04:52:01;;;;;;;7.75;7.03;;;14.70;99.90;;;;;;5038985;28;20045;-77
2022/07/30 04:54:36;;;;;;;7.65;6.95;;;14.80;99.90;;;;;;5046911;28;20049;-76
2022/07/30 04:57:05;;;;;;;8.63;7.82;;;14.80;99.90;;;;;;5042328;28;20049;-76
2022/07/30 04:59:33;;;;;;;8.70;7.63;;;14.80;99.90;;;;;;5042935;28;20055;-75
2022/07/30 05:02:00;;;;;;;7.57;6.97;;;14.80;99.90;;;;;;5051523;28;20049;-77
2022/07/30 05:04:27;;;;;;;9.10;7.43;;;14.90;99.90;;;;;;5043656;28;20050;-74
2022/07/30 05:06:56;;;;;;;8.95;7.28;;;14.90;99.90;;;;;;5027678;28;20391;-76
2022/07/30 05:09:22;;;;;;;9.77;7.72;;;15.20;99.90;;;;;;5049241;28;20072;-77
2022/07/30 05:11:55;;;;;;;9.70;7.38;;;14.80;99.90;;;;;;5051332;28;20288;-76
2022/07/30 05:14:22;;;;;;;10.07;8.07;;;14.80;99.90;;;;;;5042797;28;20069;-79
2022/07/30 05:16:49;;;;;;;9.55;7.10;;;14.80;99.90;;;;;;5042767;28;20564;-77
2022/07/30 05:19:15;;;;;;;8.20;7.25;;;14.80;99.90;;;;;;5045080;28;20041;-81
2022/07/30 05:21:41;;;;;;;8.27;7.20;;;14.90;99.90;;;;;;5046659;28;20090;-77
2022/07/30 05:24:07;;;;;;;7.53;6.78;;;15.70;99.90;;;;;;5044824;28;20057;-77
2022/07/30 05:26:33;;;;;;;10.63;7.75;;;14.90;99.90;;;;;;5038882;28;20509;-77
2022/07/30 05:28:58;;;;;;;8.48;7.78;;;15.30;99.90;;;;;;5050170;28;20076;-77
2022/07/30 05:31:24;;;;;;;9.13;7.28;;;14.80;99.90;;;;;;5045355;28;20045;-77
2022/07/30 05:33:53;;;;;;;7.97;7.38;;;14.90;99.90;;;;;;5045309;28;20063;-77
2022/07/30 05:36:19;;;;;;;8.60;7.40;;;15.00;99.90;;;;;;5024230;28;20037;-77
2022/07/30 05:38:45;;;;;;;7.65;6.35;;;15.10;99.90;;;;;;5049233;28;20045;-76
2022/07/30 05:41:11;;;;;;;7.25;6.55;;;15.00;99.90;;;;;;5027753;28;20059;-77
2022/07/30 05:43:37;;;;;;;8.70;7.90;;;15.10;99.90;;;;;;5045713;28;20037;-76
2022/07/30 05:46:02;;;;;;;9.35;7.55;;;15.10;99.90;;;;;;5045253;28;20496;-77
2022/07/30 05:48:30;;;;;;;9.43;7.53;;;14.40;99.90;;;;;;5045370;28;20056;-75
2022/07/30 05:50:55;;;;;;;8.57;7.03;;;15.10;99.90;;;;;;5044311;28;20121;-75
2022/07/30 05:53:21;;;;;;;8.35;7.60;;;15.50;99.90;;;;;;5041547;28;20127;-75
2022/07/30 05:55:47;;;;;;;9.40;7.65;;;15.10;99.90;;;;;;5042536;28;20037;-77
2022/07/30 05:58:12;;;;;;;10.85;7.70;;;15.10;99.90;;;;;;5045265;28;20554;-77
2022/07/30 06:00:38;;;;;;;10.43;6.82;;;15.10;99.90;;;;;;5022772;28;20060;-78
2022/07/30 06:03:05;;;;;;;9.10;8.30;;;15.20;99.90;;;;;;5023457;28;20144;-76
2022/07/30 06:05:31;;;;;;;10.05;7.93;;;15.30;99.90;;;;;;5021628;28;20042;-77
2022/07/30 06:07:57;;;;;;;10.13;9.13;;;16.20;99.90;;;;;;5021393;28;20037;-76
2022/07/30 06:10:22;;;;;;;10.98;8.68;;;16.20;99.90;;;;;;5024826;28;20628;-75
2022/07/30 06:12:51;;;;;;;10.75;9.60;;;15.50;99.90;;;;;;5009443;28;20041;-76
2022/07/30 06:15:17;;;;;;;12.23;8.88;;;15.50;99.90;;;;;;5021385;28;20045;-77
2022/07/30 06:17:46;;;;;;;10.38;9.15;;;15.60;99.90;;;;;;5022737;28;20140;-77
2022/07/30 06:20:13;;;;;;;10.30;9.02;;;15.70;99.90;;;;;;5022128;28;20053;-77
2022/07/30 06:22:39;;;;;;;12.73;9.13;;;15.80;99.90;;;;;;5025099;28;20115;-77
2022/07/30 06:25:09;;;;;;;12.15;10.13;;;15.80;99.90;;;;;;5022460;28;20049;-77
2022/07/30 06:27:35;;;;;;;12.32;9.50;;;15.90;99.90;;;;;;5021880;28;20030;-78
2022/07/30 06:30:02;;;;;;;15.15;9.20;;;16.00;99.90;;;;;;5021604;28;20085;-76
2022/07/30 06:32:28;;;;;;;12.20;9.98;;;16.10;99.90;;;;;;5026016;28;20073;-76
2022/07/30 06:34:53;;;;;;;11.68;9.32;;;16.10;99.90;;;;;;5023411;28;20064;-80
2022/07/30 06:37:19;;;;;;;12.57;8.88;;;16.20;99.90;;;;;;5021765;28;20042;-80
2022/07/30 06:39:44;;;;;;;12.70;9.52;;;16.20;99.90;;;;;;5019314;28;20052;-78
2022/07/30 06:42:10;;;;;;;16.23;9.45;;;16.40;99.90;;;;;;5021194;28;20444;-79
2022/07/30 06:44:35;;;;;;;12.98;8.80;;;16.50;99.90;;;;;;5021844;28;20034;-78
2022/07/30 06:47:01;;;;;;;15.30;8.75;;;16.70;99.90;;;;;;5021638;28;20054;-75
2022/07/30 06:49:26;;;;;;;10.75;8.05;;;16.70;99.90;;;;;;5026966;28;20038;-76
2022/07/30 06:51:52;;;;;;;13.05;7.53;;;16.70;99.90;;;;;;5020595;28;20044;-76
2022/07/30 06:54:18;;;;;;;13.55;8.15;;;16.90;99.90;;;;;;5023382;28;20064;-76
2022/07/30 06:56:43;;;;;;;10.15;8.05;;;17.50;99.90;;;;;;5023030;28;20041;-77
2022/07/30 06:59:09;;;;;;;13.15;6.85;;;17.00;99.90;;;;;;5021777;28;20046;-76
2022/07/30 07:01:35;;;;;;;13.20;7.53;;;17.10;99.90;;;;;;5031406;28;20064;-76
2022/07/30 07:04:00;;;;;;;10.07;7.80;;;17.10;99.90;;;;;;5039929;28;20033;-76
2022/07/30 07:06:26;;;;;;;18.38;9.05;;;17.20;99.90;;;;;;5040366;28;20054;-76
2022/07/30 07:08:51;;;;;;;14.55;8.10;;;17.30;99.90;;;;;;5039919;28;20037;-76
2022/07/30 07:11:17;;;;;;;11.43;7.55;;;17.40;99.90;;;;;;5029423;28;20492;-75
2022/07/30 07:13:43;;;;;;;11.27;6.97;;;18.00;99.90;;;;;;5040103;28;20064;-77
2022/07/30 07:16:08;;;;;;;9.90;6.93;;;17.60;99.90;;;;;;5023644;28;20069;-77
2022/07/30 07:18:34;;;;;;;13.18;7.35;;;17.70;99.90;;;;;;5045975;28;20029;-78
2022/07/30 07:21:00;;;;;;;12.15;7.88;;;17.80;99.90;;;;;;5039840;28;20137;-78
2022/07/30 07:23:25;;;;;;;10.38;7.97;;;17.90;99.90;;;;;;5044186;28;20036;-77
2022/07/30 07:25:51;;;;;;;14.82;8.23;;;17.90;99.90;;;;;;5042866;28;20037;-76
2022/07/30 07:28:16;;;;;;;14.15;7.40;;;18.00;99.90;;;;;;5041255;28;20139;-76
2022/07/30 07:30:42;;;;;;;15.70;7.05;;;18.40;99.90;;;;;;5019595;28;20041;-77
2022/07/30 07:33:09;;;;;;;11.73;6.75;;;18.20;99.90;;;;;;5041982;28;20045;-75
2022/07/30 07:35:34;;;;;;;11.07;7.38;;;18.20;99.90;;;;;;5043471;28;20083;-75
2022/07/30 07:38:01;;;;;;;11.10;6.32;;;18.30;99.90;;;;;;5043361;28;20033;-76
2022/07/30 07:40:26;;;;;;;14.23;7.75;;;18.70;99.90;;;;;;5022412;28;20053;-78
2022/07/30 07:42:52;;;;;;;16.25;6.28;;;18.40;99.90;;;;;;5040136;28;20489;-77
2022/07/30 07:45:18;;;;;;;16.17;6.90;;;18.80;99.90;;;;;;5023418;28;20326;-77
2022/07/30 07:47:48;;;;;;;9.82;6.47;;;18.50;99.90;;;;;;5045478;28;20075;-77
2022/07/30 07:50:16;;;;;;;15.07;7.00;;;18.60;99.90;;;;;;5046810;28;20400;-76
2022/07/30 07:52:42;;;;;;;16.20;7.35;;;18.60;99.90;;;;;;5044260;28;20045;-76
2022/07/30 07:55:08;;;;;;;10.80;7.15;;;18.70;99.90;;;;;;5041856;28;20092;-77
2022/07/30 07:57:41;;;;;;;10.95;6.15;;;18.70;99.90;;;;;;5038537;28;20524;-76
2022/07/30 08:00:13;;;;;;;14.80;6.40;;;18.70;99.90;;;;;;5039226;28;20073;-77
2022/07/30 08:02:39;;;;;;;9.95;5.88;;;18.80;99.90;;;;;;5042875;28;20078;-77
2022/07/30 08:05:06;;;;;;;10.27;5.78;;;18.80;99.90;;;;;;5024348;28;20067;-76
2022/07/30 08:07:32;;;;;;;9.82;6.00;;;18.90;99.90;;;;;;5042702;28;20071;-77
2022/07/30 08:09:58;;;;;;;20.02;7.45;;;18.90;99.90;;;;;;5042771;28;20124;-76
2022/07/30 08:12:24;;;;;;;7.85;5.43;;;18.90;99.90;;;;;;5042027;28;20124;-76
2022/07/30 08:14:50;;;;;;;15.65;4.95;;;19.40;99.90;;;;;;5024621;28;20052;-76
2022/07/30 08:17:15;;;;;;;11.88;5.25;;;19.00;99.90;;;;;;5042693;28;20080;-78
2022/07/30 08:19:41;;;;;;;9.95;5.13;;;19.30;99.90;;;;;;5041857;28;20052;-77
2022/07/30 08:22:06;;;;;;;12.10;3.58;;;19.20;99.90;;;;;;5043593;28;20033;-76
2022/07/30 08:24:32;;;;;;;9.38;3.83;;;19.30;99.90;;;;;;5039346;28;20045;-81
2022/07/30 08:26:58;;;;;;;8.45;3.55;;;19.30;99.90;;;;;;5038517;28;20061;-80
2022/07/30 08:29:23;;;;;;;6.80;3.70;;;19.30;99.90;;;;;;5040997;28;20413;-80
2022/07/30 08:31:49;;;;;;;9.38;3.88;;;19.70;99.90;;;;;;5042938;28;20040;-80
2022/07/30 08:34:16;;;;;;;11.65;4.00;;;19.60;99.90;;;;;;5041264;28;20120;-80
2022/07/30 08:36:42;;;;;;;9.25;3.80;;;19.40;99.90;;;;;;5039156;28;20057;-77
2022/07/30 08:39:08;;;;;;;8.27;3.47;;;19.50;99.90;;;;;;5038981;28;20486;-78
2022/07/30 08:41:35;;;;;;;6.53;2.90;;;19.90;99.90;;;;;;5041521;28;20025;-78
2022/07/30 08:44:02;;;;;;;7.60;3.47;;;19.70;99.90;;;;;;5042162;28;20519;-77
2022/07/30 08:46:32;;;;;;;6.72;3.28;;;19.70;99.90;;;;;;5039970;28;20041;-78
2022/07/30 08:48:58;;;;;;;8.65;3.33;;;19.70;99.90;;;;;;5038545;28;20037;-77
2022/07/30 08:51:24;;;;;;;6.88;3.90;;;19.80;99.90;;;;;;5040887;28;20508;-76
2022/07/30 08:53:50;;;;;;;8.68;3.53;;;20.00;99.90;;;;;;5041748;28;20040;-79
2022/07/30 08:56:16;;;;;;;7.97;3.10;;;19.90;99.90;;;;;;5024588;28;20052;-78
2022/07/30 08:58:42;;;;;;;5.40;3.05;;;19.90;99.90;;;;;;5041896;28;20041;-78
2022/07/30 09:01:08;;;;;;;10.32;3.85;;;19.90;99.90;;;;;;5041749;28;20074;-78
2022/07/30 09:03:36;;;;;;;11.40;3.17;;;20.00;99.90;;;;;;5021798;28;20143;-79
2022/07/30 09:06:04;;;;;;;4.50;2.67;;;19.90;99.90;;;;;;5042323;28;20409;-79
2022/07/30 09:08:30;;;;;;;8.50;3.03;;;19.90;99.90;;;;;;5026001;28;20056;-79
2022/07/30 09:10:56;;;;;;;7.07;2.60;;;19.90;99.90;;;;;;5052495;28;20474;-79
2022/07/30 09:13:30;;;;;;;7.07;3.30;;;20.00;99.90;;;;;;5043370;28;20103;-79
2022/07/30 09:15:56;;;;;;;11.20;3.00;;;20.10;99.90;;;;;;5027253;28;20512;-80
2022/07/30 09:18:29;;;;;;;7.50;2.78;;;20.20;99.90;;;;;;5045719;28;20049;-74
2022/07/30 09:20:55;;;;;;;7.32;3.35;;;20.20;99.90;;;;;;5045636;28;20069;-74
2022/07/30 09:23:21;;;;;;;11.43;3.88;;;20.20;99.90;;;;;;5044347;28;20041;-74
2022/07/30 09:25:47;;;;;;;8.38;2.80;;;20.20;99.90;;;;;;5041862;28;20041;-75
2022/07/30 09:28:13;;;;;;;11.00;3.50;;;20.20;99.90;;;;;;5042376;28;20110;-74
2022/07/30 09:30:54;;;;;;;6.95;2.80;;;20.80;99.90;;;;;;5049096;28;20042;-76
2022/07/30 09:33:37;;;;;;;7.68;2.40;;;20.40;99.90;;;;;;5050678;28;20037;-78
2022/07/30 09:36:08;;;;;;;13.38;3.30;;;20.50;99.90;;;;;;5044762;28;20072;-78
2022/07/30 09:38:52;;;;;;;4.85;2.95;;;20.50;99.90;;;;;;5042490;28;20484;-77
2022/07/30 09:41:36;;;;;;;8.55;2.60;;;20.50;99.90;;;;;;5032438;28;20084;-75
2022/07/30 09:44:03;;;;;;;7.67;2.77;;;20.70;99.90;;;;;;5041458;28;20045;-75
2022/07/30 09:46:45;;;;;;;5.68;2.50;;;20.60;99.90;;;;;;5043781;28;20280;-76
2022/07/30 09:49:16;;;;;;;5.75;2.15;;;21.10;99.90;;;;;;5045252;28;20041;-78
2022/07/30 09:51:41;;;;;;;3.08;2.40;;;21.50;99.90;;;;;;5027231;28;20052;-77
2022/07/30 09:54:07;;;;;;;5.78;2.90;;;20.70;99.90;;;;;;5045404;28;20381;-76
2022/07/30 09:56:33;;;;;;;8.95;2.40;;;20.80;99.90;;;;;;5043076;28;20037;-76
2022/07/30 09:58:58;;;;;;;7.95;2.50;;;21.10;99.90;;;;;;5024978;28;20048;-76
2022/07/30 10:01:24;;;;;;;4.60;2.45;;;21.00;99.90;;;;;;5032061;28;20395;-78
2022/07/30 10:03:49;;;;;;;9.88;2.55;;;20.90;99.90;;;;;;5041016;28;20056;-78
2022/07/30 10:06:15;;;;;;;6.95;2.35;;;20.90;99.90;;;;;;5041133;28;20052;-80
2022/07/30 10:08:46;;;;;;;8.50;2.65;;;20.90;99.90;;;;;;5043438;28;20038;-79
2022/07/30 10:11:17;;;;;;;6.03;2.05;;;21.10;99.90;;;;;;5044074;28;20041;-77
2022/07/30 10:13:45;;;;;;;6.90;2.40;;;21.10;99.90;;;;;;5041787;28;20084;-78
2022/07/30 10:16:12;;;;;;;6.72;2.60;;;21.20;99.90;;;;;;5040907;28;20385;-76
2022/07/30 10:18:40;;;;;;;11.07;2.75;;;20.80;99.90;;;;;;5042074;28;20100;-78
2022/07/30 10:21:07;;;;;;;8.80;2.92;;;21.20;99.90;;;;;;5044629;28;20139;-78
2022/07/30 10:23:34;;;;;;;5.00;2.40;;;21.20;99.90;;;;;;5042832;28;20451;-79
2022/07/30 10:26:00;;;;;;;7.63;3.03;;;21.20;99.90;;;;;;5040524;28;20124;-79
2022/07/30 10:28:28;;;;;;;4.72;2.40;;;21.20;99.90;;;;;;5040957;28;20088;-79
2022/07/30 10:30:55;;;;;;;9.52;2.35;;;21.30;99.90;;;;;;5044283;28;20076;-77
2022/07/30 10:33:26;;;;;;;8.40;2.50;;;21.30;99.90;;;;;;5043957;28;20037;-77
2022/07/30 10:35:52;;;;;;;8.52;2.78;;;21.40;99.90;;;;;;5041584;28;20041;-75
2022/07/30 10:38:31;;;;;;;8.77;3.03;;;21.40;99.90;;;;;;5040793;28;20144;-76
2022/07/30 10:41:36;;;;;;;7.75;1.90;;;21.40;99.90;;;;;;5044355;28;20059;-76
2022/07/30 10:44:34;;;;;;;8.07;2.88;;;21.40;99.90;;;;;;5040699;28;20049;-77
2022/07/30 10:47:06;;;;;;;6.85;3.05;;;21.50;99.90;;;;;;5042223;28;20045;-79
2022/07/30 10:49:31;;;;;;;10.52;2.75;;;21.70;99.90;;;;;;5040117;28;20052;-79
2022/07/30 10:52:00;;;;;;;14.82;3.00;;;21.70;99.90;;;;;;5044345;28;20033;-77
2022/07/30 10:54:43;;;;;;;7.80;2.42;;;21.80;99.90;;;;;;5025686;28;20370;-76
2022/07/30 10:57:15;;;;;;;3.20;1.50;;;21.70;99.90;;;;;;5006133;28;20120;-77
2022/07/30 10:59:54;;;;;;;9.45;2.00;;;21.80;99.90;;;;;;5048330;28;20045;-75
2022/07/30 11:02:22;;;;;;;6.65;1.88;;;21.90;99.90;;;;;;5046416;28;20103;-74
2022/07/30 11:04:47;;;;;;;7.93;2.10;;;21.90;99.90;;;;;;5041968;28;20045;-76
2022/07/30 11:07:22;;;;;;;3.58;1.80;;;22.10;99.90;;;;;;5039586;28;20041;-76
2022/07/30 11:09:52;;;;;;;7.03;1.45;;;22.20;99.90;;;;;;5042012;28;20049;-75
2022/07/30 11:12:44;;;;;;;7.38;1.83;;;22.30;99.90;;;;;;5045289;28;20103;-79
2022/07/30 11:15:11;;;;;;;5.18;2.13;;;22.40;99.90;;;;;;5039121;28;20041;-76
2022/07/30 11:18:09;;;;;;;7.43;1.75;;;22.50;99.90;;;;;;5040747;28;20425;-76
2022/07/30 11:20:35;;;;;;;3.63;1.67;;;22.50;99.90;;;;;;5042773;28;20091;-76
2022/07/30 11:23:23;;;;;;;4.10;1.40;;;22.40;99.90;;;;;;5008556;28;20084;-76
2022/07/30 11:25:49;;;;;;;2.40;1.17;;;22.40;99.90;;;;;;5043664;28;20186;-75
2022/07/30 11:28:36;;;;;;;5.68;1.63;;;22.60;99.90;;;;;;5041791;28;20527;-76
2022/07/30 11:31:02;;;;;;;4.88;1.52;;;22.70;99.90;;;;;;5040046;28;20101;-76
2022/07/30 11:33:28;;;;;;;4.72;2.08;;;22.70;99.90;;;;;;5041154;28;20056;-76
2022/07/30 11:36:05;;;;;;;4.72;1.60;;;22.70;99.90;;;;;;5047621;28;20037;-80
2022/07/30 11:38:57;;;;;;;4.05;1.27;;;22.80;99.90;;;;;;5039591;28;20504;-76
2022/07/30 11:41:24;;;;;;;4.10;1.90;;;23.00;99.90;;;;;;5039735;28;20060;-79
2022/07/30 11:44:24;;;;;;;4.88;1.98;;;23.10;99.90;;;;;;5041306;28;20053;-75
2022/07/30 11:46:50;;;;;;;2.35;1.30;;;23.10;99.90;;;;;;5040134;28;20107;-79
2022/07/30 11:49:17;;;;;;;6.05;1.45;;;23.20;99.90;;;;;;5039432;28;20053;-79
2022/07/30 11:51:45;;;;;;;5.93;1.88;;;23.30;99.90;;;;;;5029202;28;20037;-79
2022/07/30 11:54:11;;;;;;;3.70;1.67;;;23.40;99.90;;;;;;5039428;28;20052;-79
2022/07/30 11:56:51;;;;;;;4.20;1.73;;;23.40;99.90;;;;;;5038919;28;20120;-79
2022/07/30 11:59:20;;;;;;;5.60;1.65;;;23.40;99.90;;;;;;5042786;28;20057;-80
2022/07/30 12:02:00;;;;;;;3.50;1.40;;;23.30;99.90;;;;;;5042753;28;20390;-76
2022/07/30 12:04:25;;;;;;;2.53;1.35;;;23.20;99.90;;;;;;5042463;28;20045;-76
2022/07/30 12:06:52;;;;;;;6.55;1.70;;;23.20;99.90;;;;;;5040976;28;20037;-77
2022/07/30 12:09:22;;;;;;;4.85;1.52;;;23.10;99.90;;;;;;5039125;28;20060;-76
2022/07/30 12:11:48;;;;;;;5.53;1.92;;;23.00;99.90;;;;;;5039872;28;20048;-75
2022/07/30 12:14:13;;;;;;;2.83;1.13;;;23.30;99.90;;;;;;5024921;28;20053;-75
2022/07/30 12:16:47;;;;;;;3.30;1.70;;;23.20;99.90;;;;;;5042912;28;20045;-78
2022/07/30 12:19:13;;;;;;;4.80;1.48;;;23.20;99.90;;;;;;5038972;28;20045;-76
2022/07/30 12:21:38;;;;;;;3.92;1.52;;;23.10;99.90;;;;;;5030191;28;20044;-79
2022/07/30 12:24:06;;;;;;;5.70;1.50;;;23.10;99.90;;;;;;5042476;28;20037;-78
2022/07/30 12:26:33;;;;;;;4.82;1.00;;;23.10;99.90;;;;;;5041912;28;20041;-78
2022/07/30 12:29:12;;;;;;;3.92;1.45;;;23.30;99.90;;;;;;5040047;28;20125;-76
2022/07/30 12:31:39;;;;;;;4.85;1.40;;;23.30;99.90;;;;;;5046220;28;20037;-77
2022/07/30 12:34:17;;;;;;;5.15;1.42;;;23.40;99.90;;;;;;5042609;28;20079;-80
2022/07/30 12:36:43;;;;;;;4.30;1.75;;;23.40;99.90;;;;;;5042263;28;20148;-79
2022/07/30 12:39:24;;;;;;;4.18;1.38;;;23.50;99.90;;;;;;5038974;28;20077;-76
2022/07/30 12:41:52;;;;;;;4.30;1.38;;;23.60;99.50;;;;;;5026010;28;20091;-79
2022/07/30 12:44:38;;;;;;;6.15;1.27;;;23.70;99.70;;;;;;5050179;28;20430;-78
2022/07/30 12:47:27;;;;;;;5.40;1.67;;;23.80;99.30;;;;;;5032456;28;21182;-79
2022/07/30 12:49:55;;;;;;;4.32;1.83;;;23.80;98.60;;;;;;5050665;28;20045;-79
2022/07/30 12:52:30;;;;;;;3.58;1.15;;;23.80;98.30;;;;;;5030018;28;20044;-75